Time;durP1;ratioP1;P1;durP2;ratioP2;P2;SDS_P1;SDS_P2;PMS_P1;PMS_P2;Temp;Humidity;BMP_temperature;BMP_pressure;BME280_temperature;BME280_humidity;BME280_pressure;Samples;Min_cycle;Max_cycle;Signal;HPM_P1;HPM_P2
2024/02/20 00:01:36;;;;;;;30.95;4.43;;;;;;;9.33;100.00;102243.00;4998325;28;20045;-68
2024/02/20 00:04:01;;;;;;;24.10;5.32;;;;;;;9.33;100.00;102243.88;4995485;28;20097;-68
2024/02/20 00:06:27;;;;;;;23.00;4.35;;;;;;;9.31;100.00;102242.41;5050499;28;20049;-68
2024/02/20 00:08:52;;;;;;;25.67;4.63;;;;;;;9.34;100.00;102244.69;5033954;28;20033;-68
2024/02/20 00:11:18;;;;;;;23.35;4.55;;;;;;;9.37;100.00;102255.31;5036410;28;20103;-68
2024/02/20 00:13:44;;;;;;;19.20;4.32;;;;;;;9.34;100.00;102255.78;5017226;28;20042;-68
2024/02/20 00:16:09;;;;;;;22.90;4.75;;;;;;;9.34;100.00;102256.63;5013945;28;20111;-68
2024/02/20 00:18:35;;;;;;;20.48;3.83;;;;;;;9.32;100.00;102258.78;5042189;28;20033;-69
2024/02/20 00:21:01;;;;;;;20.25;4.25;;;;;;;9.32;100.00;102249.63;5033966;28;20477;-68
2024/02/20 00:23:26;;;;;;;17.45;3.83;;;;;;;9.29;100.00;102258.44;5015101;28;20081;-68
2024/02/20 00:25:52;;;;;;;18.02;3.83;;;;;;;9.26;100.00;102248.69;5033160;28;20491;-68
2024/02/20 00:28:17;;;;;;;19.40;3.97;;;;;;;9.25;100.00;102255.31;5038020;28;20021;-68
2024/02/20 00:30:44;;;;;;;18.80;3.53;;;;;;;9.24;100.00;102253.63;5038243;28;20033;-68
2024/02/20 00:33:09;;;;;;;22.27;3.83;;;;;;;9.25;100.00;102247.00;5001915;28;20113;-68
2024/02/20 00:35:35;;;;;;;18.50;3.92;;;;;;;9.25;100.00;102246.13;5036525;28;20030;-68
2024/02/20 00:38:00;;;;;;;16.38;3.58;;;;;;;9.25;100.00;102246.13;5023012;28;20496;-68
2024/02/20 00:40:26;;;;;;;18.73;3.50;;;;;;;9.22;100.00;102244.72;5019918;28;20405;-68
2024/02/20 00:42:51;;;;;;;14.63;3.15;;;;;;;9.23;100.00;102246.41;5020169;28;20087;-68
2024/02/20 00:45:17;;;;;;;23.38;4.13;;;;;;;9.23;100.00;102240.84;5037631;28;20544;-68
2024/02/20 00:47:43;;;;;;;12.50;3.08;;;;;;;9.22;100.00;102235.53;5028817;28;20043;-68
2024/02/20 00:50:09;;;;;;;14.48;3.25;;;;;;;9.23;100.00;102243.63;5038452;28;20037;-68
2024/02/20 00:52:35;;;;;;;14.15;2.75;;;;;;;9.21;100.00;102233.88;5001335;28;20088;-68
2024/02/20 00:55:01;;;;;;;17.02;3.17;;;;;;;9.22;100.00;102238.31;5016702;28;20037;-68
2024/02/20 00:57:29;;;;;;;17.85;3.30;;;;;;;9.24;100.00;102236.16;5038475;28;20036;-68
2024/02/20 00:59:55;;;;;;;16.55;3.38;;;;;;;9.24;100.00;102230.59;5021482;28;20033;-68
2024/02/20 01:02:20;;;;;;;16.20;3.45;;;;;;;9.26;100.00;102225.66;4997488;28;20029;-68
2024/02/20 01:04:46;;;;;;;13.32;3.20;;;;;;;9.27;100.00;102227.34;5000942;28;20041;-68
2024/02/20 01:07:11;;;;;;;14.40;3.47;;;;;;;9.22;100.00;102224.44;5018525;28;20069;-69
2024/02/20 01:09:37;;;;;;;14.82;3.90;;;;;;;9.23;100.00;102229.75;4984817;28;20485;-68
2024/02/20 01:12:03;;;;;;;16.45;3.63;;;;;;;9.25;100.00;102229.50;4984939;28;20109;-69
2024/02/20 01:14:28;;;;;;;20.80;3.67;;;;;;;9.22;100.00;102224.44;4985753;28;20033;-68
2024/02/20 01:16:54;;;;;;;9.93;2.70;;;;;;;9.26;100.00;102220.13;4984744;28;20106;-68
2024/02/20 01:19:20;;;;;;;17.25;3.20;;;;;;;9.21;100.00;102215.28;4998044;28;20033;-68
2024/02/20 01:21:45;;;;;;;14.52;3.10;;;;;;;9.18;100.00;102219.41;4987106;28;20030;-68
2024/02/20 01:24:10;;;;;;;15.00;3.33;;;;;;;9.19;100.00;102209.16;4987338;28;20030;-68
2024/02/20 01:26:36;;;;;;;13.75;3.17;;;;;;;9.20;100.00;102212.78;4968597;28;20033;-68
2024/02/20 01:29:01;;;;;;;11.50;2.70;;;;;;;9.22;100.00;102221.69;4997550;28;20034;-68
2024/02/20 01:31:28;;;;;;;17.23;3.58;;;;;;;9.18;100.00;102224.09;5018371;28;20057;-68
2024/02/20 01:33:53;;;;;;;14.80;3.38;;;;;;;9.16;100.00;102224.38;4984609;28;20389;-68
2024/02/20 01:36:19;;;;;;;10.35;2.78;;;;;;;9.16;100.00;102216.03;4982961;28;20041;-68
2024/02/20 01:38:46;;;;;;;15.27;3.00;;;;;;;9.16;100.00;102215.19;4984536;28;20029;-68
2024/02/20 01:41:11;;;;;;;13.27;3.22;;;;;;;9.16;100.00;102220.72;4990876;28;20389;-68
2024/02/20 01:43:37;;;;;;;14.60;2.72;;;;;;;9.16;100.00;102216.03;5000280;28;20108;-69
2024/02/20 01:46:04;;;;;;;17.48;3.13;;;;;;;9.18;100.00;102219.41;5013520;28;20068;-68
2024/02/20 01:48:29;;;;;;;13.70;3.10;;;;;;;9.14;100.00;102215.44;4985434;28;20088;-68
2024/02/20 01:50:55;;;;;;;11.73;2.55;;;;;;;9.15;100.00;102214.34;4984013;28;20038;-68
2024/02/20 01:53:22;;;;;;;12.18;3.28;;;;;;;9.17;100.00;102214.94;5017707;28;20056;-68
2024/02/20 01:55:47;;;;;;;14.80;3.40;;;;;;;9.20;100.00;102215.56;4984569;28;20029;-68
2024/02/20 01:58:13;;;;;;;15.02;2.60;;;;;;;9.17;100.00;102216.88;4985546;28;20045;-69
2024/02/20 02:00:39;;;;;;;17.17;3.03;;;;;;;9.18;100.00;102213.84;4983823;28;20029;-69
2024/02/20 02:03:05;;;;;;;10.40;2.60;;;;;;;9.17;100.00;102214.94;5000029;28;20481;-68
2024/02/20 02:05:30;;;;;;;11.15;2.72;;;;;;;9.17;100.00;102214.13;4984198;28;20030;-69
2024/02/20 02:07:59;;;;;;;12.85;2.65;;;;;;;9.16;100.00;102207.72;5036981;28;20503;-68
2024/02/20 02:10:24;;;;;;;12.50;3.15;;;;;;;9.17;100.00;102200.25;5041666;28;20035;-68
2024/02/20 02:12:50;;;;;;;16.25;3.53;;;;;;;9.18;100.00;102207.47;5021747;28;20030;-69
2024/02/20 02:15:16;;;;;;;19.77;3.67;;;;;;;9.17;100.00;102203.88;5011564;28;20030;-68
2024/02/20 02:17:41;;;;;;;12.95;3.30;;;;;;;9.16;100.00;102204.97;5036126;28;20033;-68
2024/02/20 02:20:08;;;;;;;16.10;3.33;;;;;;;9.16;100.00;102204.97;5035991;28;20083;-68
2024/02/20 02:22:34;;;;;;;14.73;3.15;;;;;;;9.14;100.00;102200.75;5037003;28;20485;-68
2024/02/20 02:25:00;;;;;;;15.85;3.55;;;;;;;9.16;100.00;102204.97;5016071;28;20045;-68
2024/02/20 02:27:26;;;;;;;23.27;3.95;;;;;;;9.14;100.00;102206.28;5016453;28;20111;-68
2024/02/20 02:29:52;;;;;;;13.05;3.22;;;;;;;9.17;100.00;102203.88;5035695;28;20401;-68
2024/02/20 02:32:17;;;;;;;12.35;3.00;;;;;;;9.16;100.00;102204.09;5039732;28;20390;-68
2024/02/20 02:34:44;;;;;;;19.08;4.53;;;;;;;9.13;100.00;102202.66;5034868;28;20110;-68
2024/02/20 02:37:10;;;;;;;25.75;5.97;;;;;;;9.05;100.00;102194.69;5013061;28;20034;-69
2024/02/20 02:39:35;;;;;;;24.98;6.07;;;;;;;9.00;100.00;102199.28;5035770;28;20529;-68
2024/02/20 02:42:01;;;;;;;25.30;5.18;;;;;;;9.04;100.00;102200.50;5000091;28;20029;-68
2024/02/20 02:44:26;;;;;;;25.25;5.50;;;;;;;9.01;100.00;102196.28;5026115;28;20029;-68
2024/02/20 02:46:52;;;;;;;18.20;4.85;;;;;;;9.05;100.00;102197.47;5036582;28;20034;-69
2024/02/20 02:49:18;;;;;;;13.68;4.50;;;;;;;9.05;100.00;102199.41;5017559;28;20512;-68
2024/02/20 02:51:43;;;;;;;21.55;5.00;;;;;;;9.04;100.00;102190.25;5031476;28;20032;-69
2024/02/20 02:54:09;;;;;;;22.65;4.72;;;;;;;9.06;100.00;102190.03;5015523;28;20030;-68
2024/02/20 02:56:34;;;;;;;19.20;4.15;;;;;;;9.06;100.00;102185.31;5035792;28;20041;-69
2024/02/20 02:58:59;;;;;;;20.85;4.32;;;;;;;9.06;100.00;102165.91;5036328;28;20083;-69
2024/02/20 03:01:25;;;;;;;23.55;4.60;;;;;;;9.06;100.00;102160.38;5014574;28;20021;-68
2024/02/20 03:03:51;;;;;;;19.40;4.30;;;;;;;9.06;100.00;102165.91;5025798;28;20034;-68
2024/02/20 03:06:16;;;;;;;19.75;3.75;;;;;;;9.06;100.00;102165.09;5014999;28;20054;-69
2024/02/20 03:08:45;;;;;;;18.65;3.88;;;;;;;9.06;100.00;102162.31;5009891;28;20103;-69
2024/02/20 03:11:17;;;;;;;17.30;3.95;;;;;;;9.06;100.00;102162.31;4999302;28;20026;-69
2024/02/20 03:13:43;;;;;;;19.90;4.20;;;;;;;9.06;100.00;102159.53;5015464;28;20037;-68
2024/02/20 03:16:09;;;;;;;17.80;3.95;;;;;;;9.03;100.00;102158.09;5034827;28;20496;-69
2024/02/20 03:18:37;;;;;;;18.50;4.10;;;;;;;9.06;100.00;102160.38;5016491;28;20030;-68
2024/02/20 03:21:04;;;;;;;21.73;4.80;;;;;;;9.03;100.00;102148.94;5033599;28;20470;-68
2024/02/20 03:23:30;;;;;;;25.67;4.55;;;;;;;9.00;100.00;102150.28;5034889;28;20475;-69
2024/02/20 03:25:56;;;;;;;23.20;4.55;;;;;;;9.01;100.00;102142.78;5018147;28;20112;-68
2024/02/20 03:28:21;;;;;;;18.65;4.13;;;;;;;8.97;100.00;102142.44;5031646;28;20041;-68
2024/02/20 03:30:48;;;;;;;19.30;4.22;;;;;;;8.98;100.00;102140.53;5033867;28;20058;-68
2024/02/20 03:33:13;;;;;;;21.67;4.15;;;;;;;8.97;100.00;102145.22;5018273;28;20030;-69
2024/02/20 03:35:39;;;;;;;21.40;4.15;;;;;;;8.92;100.00;102142.34;5012437;28;20033;-69
2024/02/20 03:38:04;;;;;;;20.38;4.55;;;;;;;8.93;100.00;102139.31;5027012;28;20033;-69
2024/02/20 03:40:30;;;;;;;26.00;4.50;;;;;;;8.89;100.00;102142.81;5014954;28;20382;-69
2024/02/20 03:42:56;;;;;;;24.90;4.32;;;;;;;8.90;100.00;102147.25;5025063;28;20109;-68
2024/02/20 03:45:22;;;;;;;21.58;4.40;;;;;;;8.88;100.00;102150.25;5001199;28;20109;-68
2024/02/20 03:47:47;;;;;;;14.52;3.65;;;;;;;8.87;100.00;102150.53;5031431;28;20033;-68
2024/02/20 03:50:13;;;;;;;21.08;4.18;;;;;;;8.84;100.00;102139.94;5034882;28;20021;-69
2024/02/20 03:52:38;;;;;;;18.88;4.07;;;;;;;8.80;100.00;102144.25;5034248;28;20504;-68
2024/02/20 03:55:05;;;;;;;24.33;4.35;;;;;;;8.81;100.00;102145.97;5017654;28;20038;-68
2024/02/20 03:57:30;;;;;;;22.25;4.40;;;;;;;8.72;100.00;102143.56;5017639;28;20072;-68
2024/02/20 03:59:56;;;;;;;23.58;4.28;;;;;;;8.73;100.00;102153.53;5013958;28;20029;-68
2024/02/20 04:02:23;;;;;;;21.80;3.88;;;;;;;8.76;100.00;102151.38;5010907;28;20029;-68
2024/02/20 04:04:48;;;;;;;20.40;4.38;;;;;;;8.74;100.00;102154.38;4998255;28;20112;-68
2024/02/20 04:07:15;;;;;;;27.45;4.05;;;;;;;8.69;100.00;102137.63;5014006;28;20064;-69
2024/02/20 04:09:41;;;;;;;22.52;4.35;;;;;;;8.66;100.00;102150.06;5000453;28;20034;-68
2024/02/20 04:12:07;;;;;;;22.60;3.50;;;;;;;8.69;100.00;102145.94;5005683;28;20091;-68
2024/02/20 04:14:33;;;;;;;19.25;3.63;;;;;;;8.72;100.00;102146.31;5015536;28;20034;-68
2024/02/20 04:16:58;;;;;;;23.15;3.67;;;;;;;8.70;100.00;102150.41;4998235;28;20034;-68
2024/02/20 04:19:24;;;;;;;17.85;3.28;;;;;;;8.69;100.00;102146.81;5015980;28;20029;-69
2024/02/20 04:21:49;;;;;;;17.88;3.90;;;;;;;8.68;100.00;102139.56;5001290;28;20083;-68
2024/02/20 04:24:15;;;;;;;13.35;3.03;;;;;;;8.71;100.00;102147.38;4998060;28;20038;-69
2024/02/20 04:26:40;;;;;;;13.13;3.60;;;;;;;8.71;100.00;102141.84;5026066;28;20041;-69
2024/02/20 04:29:06;;;;;;;16.98;3.15;;;;;;;8.67;100.00;102145.38;5017484;28;20025;-68
2024/02/20 04:31:32;;;;;;;16.60;2.92;;;;;;;8.69;100.00;102144.03;5017877;28;20720;-68
2024/02/20 04:33:57;;;;;;;15.13;3.10;;;;;;;8.69;100.00;102135.75;5030972;28;20529;-68
2024/02/20 04:36:23;;;;;;;14.82;2.72;;;;;;;8.70;100.00;102136.56;5008931;28;20022;-68
2024/02/20 04:38:52;;;;;;;15.65;3.47;;;;;;;8.69;100.00;102137.63;5014188;28;20034;-68
2024/02/20 04:41:27;;;;;;;20.42;3.47;;;;;;;8.69;100.00;102144.03;5014302;28;20025;-68
2024/02/20 04:43:52;;;;;;;11.30;2.50;;;;;;;8.69;100.00;102135.75;5033660;28;20033;-68
2024/02/20 04:46:18;;;;;;;15.40;2.60;;;;;;;8.67;100.00;102131.53;5014277;28;20026;-69
2024/02/20 04:48:44;;;;;;;17.92;3.90;;;;;;;8.67;100.00;102140.66;5014077;28;20034;-68
2024/02/20 04:51:09;;;;;;;14.15;3.05;;;;;;;8.70;100.00;102139.34;5027138;28;20034;-68
2024/02/20 04:53:35;;;;;;;18.38;3.83;;;;;;;8.69;100.00;102140.41;5014023;28;20390;-69
2024/02/20 04:56:00;;;;;;;15.75;3.58;;;;;;;8.62;100.00;102132.22;5030036;28;20060;-68
2024/02/20 04:58:26;;;;;;;17.50;3.30;;;;;;;8.63;100.00;102131.13;5003165;28;20040;-68
2024/02/20 05:00:51;;;;;;;12.05;3.10;;;;;;;8.62;100.00;102132.22;5017344;28;20026;-68
2024/02/20 05:03:17;;;;;;;18.88;3.53;;;;;;;8.63;100.00;102127.53;5035056;28;20025;-68
2024/02/20 05:05:42;;;;;;;20.52;3.42;;;;;;;8.58;100.00;102124.63;5030125;28;20038;-68
2024/02/20 05:08:08;;;;;;;16.85;3.20;;;;;;;8.59;100.00;102131.88;4965033;28;20659;-68
2024/02/20 05:10:33;;;;;;;13.93;3.15;;;;;;;8.59;100.00;102141.03;4984123;28;20036;-69
2024/02/20 05:12:59;;;;;;;13.70;2.80;;;;;;;8.58;100.00;102142.13;4984865;28;20030;-68
2024/02/20 05:15:24;;;;;;;15.60;2.83;;;;;;;8.57;100.00;102134.88;5001864;28;20026;-69
2024/02/20 05:17:50;;;;;;;12.32;2.72;;;;;;;8.61;100.00;102132.47;5001449;28;20037;-68
2024/02/20 05:20:15;;;;;;;16.00;3.08;;;;;;;8.57;100.00;102137.66;5004971;28;20218;-68
2024/02/20 05:22:40;;;;;;;13.15;3.08;;;;;;;8.57;100.00;102147.88;4985776;28;20105;-68
2024/02/20 05:25:06;;;;;;;15.57;2.97;;;;;;;8.56;100.00;102146.22;4992960;28;20022;-68
2024/02/20 05:27:32;;;;;;;15.32;2.83;;;;;;;8.54;100.00;102151.97;4984610;28;20029;-68
2024/02/20 05:29:57;;;;;;;13.63;2.80;;;;;;;8.54;100.00;102160.28;4992847;28;20030;-68
2024/02/20 05:32:23;;;;;;;13.77;2.50;;;;;;;8.54;100.00;102153.91;5000805;28;20030;-69
2024/02/20 05:34:48;;;;;;;15.52;3.00;;;;;;;8.55;100.00;102166.66;4984325;28;20034;-68
2024/02/20 05:37:14;;;;;;;16.77;3.15;;;;;;;8.55;100.00;102163.91;4984361;28;20161;-68
2024/02/20 05:39:39;;;;;;;14.48;3.35;;;;;;;8.52;100.00;102164.38;4992936;28;20030;-69
2024/02/20 05:42:07;;;;;;;16.90;3.47;;;;;;;8.53;100.00;102155.84;5006273;28;20038;-68
2024/02/20 05:44:32;;;;;;;13.48;2.75;;;;;;;8.53;100.00;102158.63;4988502;28;20395;-69
2024/02/20 05:46:58;;;;;;;12.40;2.25;;;;;;;8.52;100.00;102159.69;4968833;28;20021;-69
2024/02/20 05:49:23;;;;;;;13.70;2.80;;;;;;;8.50;100.00;102151.63;5007753;28;20031;-68
2024/02/20 05:51:49;;;;;;;13.48;2.28;;;;;;;8.50;100.00;102151.63;4967725;28;20044;-68
2024/02/20 05:54:15;;;;;;;13.50;2.80;;;;;;;8.50;100.00;102151.63;4967764;28;20501;-68
2024/02/20 05:56:43;;;;;;;17.75;2.85;;;;;;;8.49;100.00;102152.69;5017648;28;20563;-68
2024/02/20 05:59:08;;;;;;;15.50;2.72;;;;;;;8.47;100.00;102152.09;5000620;28;20025;-67
2024/02/20 06:01:33;;;;;;;14.75;3.10;;;;;;;8.48;100.00;102161.25;4967518;28;20474;-68
2024/02/20 06:04:04;;;;;;;11.80;2.80;;;;;;;8.45;100.00;102161.72;4984084;28;20026;-68
2024/02/20 06:06:29;;;;;;;13.07;2.50;;;;;;;8.48;100.00;102164.03;5014431;28;20559;-68
2024/02/20 06:08:55;;;;;;;14.88;2.72;;;;;;;8.45;100.00;102162.56;5007202;28;20052;-70
2024/02/20 06:11:22;;;;;;;11.18;2.42;;;;;;;8.45;100.00;102157.03;5003998;28;20478;-70
2024/02/20 06:13:48;;;;;;;10.02;2.22;;;;;;;8.44;100.00;102158.13;4999946;28;20034;-70
2024/02/20 06:16:14;;;;;;;9.32;1.95;;;;;;;8.41;100.00;102154.97;5019411;28;20037;-70
2024/02/20 06:18:40;;;;;;;12.63;2.85;;;;;;;8.43;100.00;102156.41;5019681;28;20428;-71
2024/02/20 06:21:06;;;;;;;11.38;2.78;;;;;;;8.43;100.00;102156.41;5015227;28;20132;-71
2024/02/20 06:23:32;;;;;;;15.95;2.90;;;;;;;8.41;100.00;102157.75;5011855;28;20393;-70
2024/02/20 06:25:57;;;;;;;11.88;3.00;;;;;;;8.38;100.00;102161.78;5016269;28;20030;-70
2024/02/20 06:28:23;;;;;;;13.98;2.85;;;;;;;8.37;100.00;102162.06;4995416;28;20389;-70
2024/02/20 06:30:48;;;;;;;11.70;2.45;;;;;;;8.35;100.00;102155.91;5016691;28;20033;-71
2024/02/20 06:33:14;;;;;;;15.10;3.28;;;;;;;8.34;100.00;102159.78;5015583;28;20033;-70
2024/02/20 06:35:41;;;;;;;12.55;3.10;;;;;;;8.33;100.00;102149.75;5016166;28;20026;-70
2024/02/20 06:38:07;;;;;;;14.20;2.60;;;;;;;8.31;100.00;102146.41;5028324;28;20080;-71
2024/02/20 06:40:32;;;;;;;11.43;2.58;;;;;;;8.28;100.00;102143.03;5017128;28;20033;-71
2024/02/20 06:42:58;;;;;;;10.98;2.58;;;;;;;8.29;100.00;102153.00;5015638;28;20113;-70
2024/02/20 06:45:23;;;;;;;12.48;2.90;;;;;;;8.29;100.00;102166.00;5021915;28;20030;-70
2024/02/20 06:47:49;;;;;;;11.98;2.67;;;;;;;8.26;100.00;102169.25;5035563;28;20080;-70
2024/02/20 06:50:14;;;;;;;12.93;2.28;;;;;;;8.24;100.00;102166.72;5018609;28;20031;-71
2024/02/20 06:52:40;;;;;;;11.05;2.80;;;;;;;8.24;100.00;102175.00;5018843;28;20033;-70
2024/02/20 06:55:06;;;;;;;10.75;2.25;;;;;;;8.24;100.00;102174.19;5019061;28;20040;-70
2024/02/20 06:57:33;;;;;;;8.18;2.58;;;;;;;8.22;100.00;102176.38;5022348;28;20033;-68
2024/02/20 06:59:59;;;;;;;14.27;3.08;;;;;;;8.18;100.00;102166.84;5016302;28;20109;-68
2024/02/20 07:02:24;;;;;;;12.95;3.63;;;;;;;8.19;100.00;102160.19;5026276;28;20669;-68
2024/02/20 07:04:49;;;;;;;12.45;2.55;;;;;;;8.18;100.00;102153.00;5034968;28;20037;-68
2024/02/20 07:07:15;;;;;;;8.93;2.35;;;;;;;8.19;100.00;102141.69;5032821;28;20413;-68
2024/02/20 07:09:40;;;;;;;11.07;2.65;;;;;;;8.19;100.00;102133.41;5001801;28;20025;-68
2024/02/20 07:12:06;;;;;;;15.57;3.03;;;;;;;8.19;100.00;102141.69;5035309;28;20030;-68
2024/02/20 07:14:32;;;;;;;12.82;2.80;;;;;;;8.18;100.00;102142.75;5030740;28;20033;-67
2024/02/20 07:16:58;;;;;;;9.05;2.47;;;;;;;8.18;100.00;102137.22;5009762;28;20037;-67
2024/02/20 07:19:25;;;;;;;12.85;2.95;;;;;;;8.20;100.00;102135.06;4999163;28;20546;-68
2024/02/20 07:21:50;;;;;;;8.27;2.55;;;;;;;8.18;100.00;102140.00;4997831;28;20079;-68
2024/02/20 07:24:16;;;;;;;10.45;2.60;;;;;;;8.19;100.00;102133.41;5029079;28;20046;-67
2024/02/20 07:26:41;;;;;;;13.52;3.20;;;;;;;8.18;100.00;102136.38;5012114;28;20079;-67
2024/02/20 07:29:07;;;;;;;10.60;2.42;;;;;;;8.18;100.00;102131.69;5016267;28;20025;-67
2024/02/20 07:31:32;;;;;;;7.65;2.10;;;;;;;8.21;100.00;102124.84;5033447;28;20041;-67
2024/02/20 07:33:59;;;;;;;11.05;2.10;;;;;;;8.21;100.00;102122.91;5033253;28;20028;-67
2024/02/20 07:36:25;;;;;;;12.27;2.55;;;;;;;8.19;100.00;102124.22;5025764;28;20033;-67
2024/02/20 07:38:50;;;;;;;12.38;2.70;;;;;;;8.19;100.00;102122.31;5015777;28;20056;-67
2024/02/20 07:41:16;;;;;;;16.50;2.65;;;;;;;8.21;100.00;102122.06;5016046;28;20037;-67
2024/02/20 07:43:41;;;;;;;7.20;2.28;;;;;;;8.19;100.00;102115.91;5033981;28;20029;-67
2024/02/20 07:46:07;;;;;;;14.23;3.03;;;;;;;8.19;100.00;102127.00;5035785;28;20048;-67
2024/02/20 07:48:32;;;;;;;8.68;2.78;;;;;;;8.16;100.00;102141.31;5035336;28;20029;-68
2024/02/20 07:50:58;;;;;;;12.75;2.30;;;;;;;8.18;100.00;102148.31;5031238;28;20509;-67
2024/02/20 07:53:23;;;;;;;14.07;2.85;;;;;;;8.16;100.00;102142.19;5033817;28;20036;-67
2024/02/20 07:55:49;;;;;;;9.73;2.70;;;;;;;8.18;100.00;102139.16;5025605;28;20013;-67
2024/02/20 07:58:15;;;;;;;8.52;2.50;;;;;;;8.19;100.00;102149.13;5010525;28;20042;-67
2024/02/20 08:00:40;;;;;;;10.68;3.55;;;;;;;8.17;100.00;102149.38;5041216;28;20021;-67
2024/02/20 08:03:06;;;;;;;9.65;2.88;;;;;;;8.19;100.00;102154.66;5039442;28;20370;-67
2024/02/20 08:05:32;;;;;;;12.65;2.80;;;;;;;8.22;100.00;102146.75;5015061;28;20026;-68
2024/02/20 08:07:57;;;;;;;15.70;3.58;;;;;;;8.24;100.00;102147.34;5034871;28;20051;-68
2024/02/20 08:10:23;;;;;;;13.57;3.47;;;;;;;8.29;100.00;102172.38;4988587;28;20034;-67
2024/02/20 08:12:48;;;;;;;13.02;3.78;;;;;;;8.34;100.00;102176.38;5019679;28;20037;-67
2024/02/20 08:15:13;;;;;;;22.60;7.72;;;;;;;8.38;100.00;102166.50;5002320;28;20029;-67
2024/02/20 08:17:40;;;;;;;27.23;10.13;;;;;;;8.43;100.00;102166.66;5017589;28;20037;-67
2024/02/20 08:20:06;;;;;;;24.92;9.40;;;;;;;8.48;100.00;102164.84;4981742;28;20430;-68
2024/02/20 08:22:31;;;;;;;29.63;12.02;;;;;;;8.51;100.00;102180.16;4981573;28;20535;-68
2024/02/20 08:24:57;;;;;;;31.10;13.95;;;;;;;8.55;100.00;102178.56;5001248;28;20040;-67
2024/02/20 08:27:23;;;;;;;31.23;12.57;;;;;;;8.59;100.00;102165.94;5001265;28;20040;-67
2024/02/20 08:29:48;;;;;;;32.38;14.07;;;;;;;8.65;100.00;102167.75;5017132;28;20607;-68
2024/02/20 08:32:14;;;;;;;32.65;13.25;;;;;;;8.70;100.00;102167.88;4997714;28;20022;-68
2024/02/20 08:34:40;;;;;;;27.98;12.02;;;;;;;8.75;100.00;102181.00;4994880;28;20037;-67
2024/02/20 08:37:05;;;;;;;24.92;12.05;;;;;;;8.81;100.00;102185.59;5002827;28;20022;-68
2024/02/20 08:39:31;;;;;;;25.75;11.50;;;;;;;8.86;100.00;102190.38;5007373;28;20049;-68
2024/02/20 08:41:56;;;;;;;23.98;11.05;;;;;;;8.91;100.00;102191.38;4999007;28;20021;-67
2024/02/20 08:44:24;;;;;;;22.42;10.05;;;;;;;8.99;100.00;102192.91;5018399;28;20044;-68
2024/02/20 08:46:49;;;;;;;15.55;9.10;;;;;;;9.07;100.00;102187.00;5001972;28;20030;-68
2024/02/20 08:49:15;;;;;;;22.08;9.73;;;;;;;9.11;100.00;102168.81;5012349;28;20032;-67
2024/02/20 08:51:40;;;;;;;16.65;8.88;;;;;;;9.21;100.00;102178.41;5004498;28;20044;-67
2024/02/20 08:54:06;;;;;;;15.65;8.38;;;;;;;9.27;100.00;102177.44;5021128;28;20037;-67
2024/02/20 08:56:31;;;;;;;17.65;8.18;;;;;;;9.34;100.00;102176.22;5020997;28;20045;-68
2024/02/20 08:58:56;;;;;;;15.43;7.60;;;;;;;9.41;100.00;102178.84;5007738;28;20030;-67
2024/02/20 09:01:24;;;;;;;15.10;7.38;;;;;;;9.49;100.00;102172.06;5007113;28;20713;-68
2024/02/20 09:03:51;;;;;;;17.90;7.53;;;;;;;9.52;100.00;102169.63;4988907;28;20469;-67
2024/02/20 09:06:17;;;;;;;13.32;6.90;;;;;;;9.58;100.00;102171.44;5004356;28;20078;-68
2024/02/20 09:08:42;;;;;;;19.40;7.68;;;;;;;9.60;100.00;102171.19;5028861;28;20087;-67
2024/02/20 09:11:08;;;;;;;15.05;7.45;;;;;;;9.67;100.00;102185.78;5035962;28;20025;-68
2024/02/20 09:13:35;;;;;;;12.82;6.80;;;;;;;9.72;100.00;102185.88;5017379;28;20026;-68
2024/02/20 09:16:00;;;;;;;13.85;6.70;;;;;;;9.76;100.00;102184.28;5035117;28;20029;-68
2024/02/20 09:18:27;;;;;;;18.65;7.65;;;;;;;9.78;100.00;102192.38;5053988;28;20029;-68
2024/02/20 09:20:53;;;;;;;13.15;6.20;;;;;;;9.83;100.00;102203.53;5020679;28;20034;-67
2024/02/20 09:23:18;;;;;;;16.23;6.60;;;;;;;9.87;100.00;102203.91;5020061;28;20037;-67
2024/02/20 09:25:44;;;;;;;13.18;6.32;;;;;;;9.91;100.00;102205.06;5033232;28;20033;-67
2024/02/20 09:28:10;;;;;;;15.38;7.28;;;;;;;9.93;100.00;102214.84;5036944;28;20386;-68
2024/02/20 09:30:36;;;;;;;17.88;7.32;;;;;;;9.98;100.00;102216.88;5015845;28;20030;-68
2024/02/20 09:33:01;;;;;;;11.68;6.70;;;;;;;10.01;100.00;102222.78;5010902;28;20030;-68
2024/02/20 09:35:27;;;;;;;11.57;5.85;;;;;;;10.04;100.00;102205.63;5000377;28;20090;-67
2024/02/20 09:37:52;;;;;;;12.75;6.63;;;;;;;10.08;100.00;102189.28;5027187;28;20547;-67
2024/02/20 09:40:19;;;;;;;15.70;6.57;;;;;;;10.06;100.00;102184.00;5020136;28;20029;-67
2024/02/20 09:42:46;;;;;;;13.57;6.10;;;;;;;10.07;100.00;102188.47;5016861;28;20109;-67
2024/02/20 09:45:19;;;;;;;12.05;6.28;;;;;;;10.07;100.00;102180.13;5014727;28;20045;-67
2024/02/20 09:47:48;;;;;;;11.93;6.07;;;;;;;10.11;100.00;102171.28;5020402;28;20037;-68
2024/02/20 09:50:18;;;;;;;19.02;6.85;;;;;;;10.15;100.00;102162.22;5038473;28;20361;-68
2024/02/20 09:52:50;;;;;;;12.65;6.35;;;;;;;10.15;100.00;102151.13;5020708;28;20026;-67
2024/02/20 09:55:17;;;;;;;14.07;5.83;;;;;;;10.17;100.00;102136.97;5016608;28;20092;-67
2024/02/20 09:57:43;;;;;;;15.95;6.38;;;;;;;10.18;100.00;102130.34;5030151;28;20105;-68
2024/02/20 10:00:09;;;;;;;13.35;6.25;;;;;;;10.18;100.00;102141.44;5012139;28;20390;-67
2024/02/20 10:02:36;;;;;;;10.05;5.40;;;;;;;10.18;100.00;102138.69;4997641;28;20038;-68
2024/02/20 10:05:02;;;;;;;14.13;5.38;;;;;;;10.21;100.00;102138.16;5000036;28;20097;-68
2024/02/20 10:07:27;;;;;;;15.13;6.10;;;;;;;10.21;100.00;102136.22;5030911;28;20050;-67
2024/02/20 10:09:53;;;;;;;12.50;5.78;;;;;;;10.25;100.00;102134.66;5018120;28;20025;-68
2024/02/20 10:12:20;;;;;;;14.38;5.65;;;;;;;10.28;100.00;102119.44;5009144;28;20026;-67
2024/02/20 10:14:45;;;;;;;14.27;6.10;;;;;;;10.24;100.00;102116.28;5021474;28;20033;-68
2024/02/20 10:17:13;;;;;;;13.02;4.97;;;;;;;10.26;100.00;102118.81;5018435;28;20037;-68
2024/02/20 10:19:38;;;;;;;15.80;5.22;;;;;;;10.28;100.00;102111.13;5000361;28;20044;-68
2024/02/20 10:22:04;;;;;;;15.93;4.80;;;;;;;10.34;100.00;102101.78;5028935;28;20026;-68
2024/02/20 10:24:29;;;;;;;13.10;5.88;;;;;;;10.36;100.00;102113.44;5035179;28;20521;-67
2024/02/20 10:26:55;;;;;;;10.63;4.88;;;;;;;10.32;100.00;102117.00;5035944;28;20021;-68
2024/02/20 10:29:20;;;;;;;14.07;5.38;;;;;;;10.37;100.00;102117.91;5016130;28;20030;-67
2024/02/20 10:31:46;;;;;;;13.80;4.82;;;;;;;10.36;100.00;102124.56;5029199;28;20539;-67
2024/02/20 10:34:11;;;;;;;13.52;5.35;;;;;;;10.40;100.00;102124.91;5015955;28;20021;-68
2024/02/20 10:36:37;;;;;;;12.23;5.40;;;;;;;10.40;100.00;102116.56;5014866;28;20038;-68
2024/02/20 10:39:06;;;;;;;14.57;5.22;;;;;;;10.42;100.00;102118.00;5037621;28;20041;-68
2024/02/20 10:41:32;;;;;;;18.10;6.53;;;;;;;10.45;100.00;102120.28;5001850;28;20029;-67
2024/02/20 10:43:57;;;;;;;14.13;6.47;;;;;;;10.44;100.00;102118.56;5033149;28;20029;-67
2024/02/20 10:46:23;;;;;;;13.18;6.78;;;;;;;10.48;100.00;102116.16;5018923;28;20029;-68
2024/02/20 10:48:50;;;;;;;16.90;7.47;;;;;;;10.50;100.00;102117.56;5032308;28;20478;-67
2024/02/20 10:51:16;;;;;;;15.45;6.80;;;;;;;10.51;100.00;102122.03;5011971;28;20505;-68
2024/02/20 10:53:42;;;;;;;13.95;6.40;;;;;;;10.56;100.00;102129.59;5021838;28;20075;-67
2024/02/20 10:56:08;;;;;;;14.70;5.60;;;;;;;10.58;100.00;102129.34;5013733;28;20180;-67
2024/02/20 10:58:36;;;;;;;12.43;5.68;;;;;;;10.64;100.00;102131.97;5015745;28;20653;-68
2024/02/20 11:01:01;;;;;;;15.48;4.97;;;;;;;10.70;100.00;102130.09;5001901;28;20034;-68
2024/02/20 11:03:27;;;;;;;11.70;4.78;;;;;;;10.80;100.00;102121.03;5033883;28;20041;-68
2024/02/20 11:05:56;;;;;;;16.25;4.75;;;;;;;10.83;100.00;102124.16;5028982;28;20524;-68
2024/02/20 11:08:27;;;;;;;16.83;5.57;;;;;;;10.91;100.00;102109.81;5001748;28;20034;-68
2024/02/20 11:10:52;;;;;;;13.95;4.97;;;;;;;10.93;100.00;102112.34;5005948;28;20033;-69